Jamestown, Michigan
Current Conditions -  °F | °C
As of 3:14 PM on Friday 24 Oct 2014 (Local Time) from KBIV Reporting Station
Overcast Overcast  
Wind Chill: 59°   Ceiling: 1400
Heat Index: 59°   Visibility: 10mi
Dew Point: 51°   Wind: 10mph
Humidity: 75%   Direction: 240°WSW
Pressure: 30"   Gusts: NA
Location:  42.83°N, 85.84°W
Report Text: KBIV 241914Z AUTO 24009KT 10SM OVC014 15/11 A3000 RMK AO2 T01500106
Loading
Personal Weather Stations






























Interactive Weather Map
Tropical Storm Tracking
New forecast layout! Learn more

10-Day Weather Forecast

Advertisements
Track Severe Weather on mobile